Time;durP1;ratioP1;P1;durP2;ratioP2;P2;SDS_P1;SDS_P2;PMS_P1;PMS_P2;Temp;Humidity;BMP_temperature;BMP_pressure;BME280_temperature;BME280_humidity;BME280_pressure;Samples;Min_cycle;Max_cycle;Signal;HPM_P1;HPM_P2
2022/10/09 00:01:28;;;;;;;10.90;3.25;;;8.90;90.10;;;;;;5049379;28;20052;-45
2022/10/09 00:03:56;;;;;;;7.97;3.35;;;9.00;90.20;;;;;;5022647;28;20025;-45
2022/10/09 00:06:29;;;;;;;13.30;3.50;;;9.00;90.20;;;;;;5053811;28;20035;-46
2022/10/09 00:09:00;;;;;;;12.70;2.75;;;8.90;90.10;;;;;;5043014;28;20064;-49
2022/10/09 00:11:29;;;;;;;8.75;3.05;;;8.90;90.00;;;;;;5036484;28;20035;-46
2022/10/09 00:13:56;;;;;;;5.67;3.17;;;8.90;90.10;;;;;;5034907;28;20036;-46
2022/10/09 00:16:22;;;;;;;9.43;4.40;;;8.80;90.00;;;;;;5019910;28;20763;-47
2022/10/09 00:18:50;;;;;;;10.43;3.10;;;8.90;90.10;;;;;;5020288;28;20466;-46
2022/10/09 00:21:25;;;;;;;9.13;3.17;;;8.80;90.10;;;;;;5053306;28;20509;-46
2022/10/09 00:23:53;;;;;;;8.70;3.03;;;8.80;90.10;;;;;;5054647;28;20067;-46
2022/10/09 00:26:25;;;;;;;8.55;3.03;;;8.70;90.00;;;;;;5036479;28;20029;-48
2022/10/09 00:28:51;;;;;;;9.60;3.50;;;8.70;90.00;;;;;;5051568;28;20033;-46
2022/10/09 00:31:17;;;;;;;6.15;2.70;;;8.70;90.20;;;;;;5034183;28;20121;-45
2022/10/09 00:33:46;;;;;;;10.75;4.00;;;8.70;90.10;;;;;;5034136;28;20029;-49
2022/10/09 00:36:18;;;;;;;14.57;3.83;;;8.70;90.10;;;;;;5019726;28;20056;-49
2022/10/09 00:38:45;;;;;;;10.50;3.47;;;8.70;90.20;;;;;;5036506;28;20462;-45
2022/10/09 00:41:18;;;;;;;6.95;3.15;;;8.60;90.10;;;;;;5035420;28;20033;-48
2022/10/09 00:44:22;;;;;;;8.95;3.20;;;8.60;90.20;;;;;;5010004;28;20033;-48
2022/10/09 00:46:51;;;;;;;12.63;3.40;;;8.60;90.20;;;;;;5016201;28;20037;-47
2022/10/09 00:49:33;;;;;;;8.00;3.13;;;8.60;90.10;;;;;;5030825;28;20040;-45
2022/10/09 00:52:06;;;;;;;9.20;3.25;;;8.50;90.10;;;;;;5033691;28;20108;-48
2022/10/09 00:54:39;;;;;;;9.05;3.30;;;8.50;90.20;;;;;;5000541;28;20033;-47
2022/10/09 00:57:12;;;;;;;9.73;3.90;;;8.50;90.10;;;;;;5016922;28;20068;-48
2022/10/09 00:59:41;;;;;;;12.95;4.28;;;8.50;90.20;;;;;;5034264;28;20461;-49
2022/10/09 01:02:08;;;;;;;10.70;5.70;;;8.50;90.10;;;;;;5019821;28;20477;-46
2022/10/09 01:04:34;;;;;;;8.93;3.22;;;8.50;90.20;;;;;;5053449;28;20434;-46
2022/10/09 01:07:26;;;;;;;8.68;3.83;;;8.50;90.10;;;;;;5053451;28;20033;-45
2022/10/09 01:10:13;;;;;;;10.13;3.00;;;8.40;90.10;;;;;;5033702;28;20041;-46
2022/10/09 01:13:06;;;;;;;7.80;3.05;;;8.40;90.10;;;;;;5040424;28;20020;-45
2022/10/09 01:15:51;;;;;;;9.35;3.13;;;8.40;90.30;;;;;;5052353;28;20029;-46
2022/10/09 01:18:38;;;;;;;9.48;3.80;;;8.40;90.10;;;;;;5032948;28;20041;-47
2022/10/09 01:21:24;;;;;;;6.63;2.60;;;8.40;90.30;;;;;;5032774;28;20033;-46
2022/10/09 01:24:14;;;;;;;12.45;2.80;;;8.40;90.30;;;;;;5037883;28;20025;-45
2022/10/09 01:27:01;;;;;;;15.27;4.30;;;8.30;90.30;;;;;;5052053;28;20024;-47
2022/10/09 01:29:39;;;;;;;10.73;2.75;;;8.40;90.40;;;;;;5051731;28;20630;-44
2022/10/09 01:32:08;;;;;;;11.05;3.67;;;8.40;90.30;;;;;;5014348;28;20129;-47
2022/10/09 01:34:36;;;;;;;17.85;3.75;;;8.30;90.30;;;;;;5024154;28;20040;-46
2022/10/09 01:37:04;;;;;;;9.77;4.00;;;8.20;90.30;;;;;;5014706;28;20128;-50
2022/10/09 01:39:36;;;;;;;10.43;3.00;;;8.30;90.30;;;;;;5046602;28;20029;-45
2022/10/09 01:42:04;;;;;;;10.35;3.38;;;8.20;90.30;;;;;;5035029;28;20741;-45
2022/10/09 01:44:31;;;;;;;8.20;3.28;;;8.20;90.40;;;;;;5031945;28;20025;-45
2022/10/09 01:47:03;;;;;;;7.88;2.78;;;8.20;90.30;;;;;;5033501;28;20112;-46
2022/10/09 01:49:36;;;;;;;9.48;3.30;;;8.10;90.40;;;;;;5049048;28;20499;-46
2022/10/09 01:52:29;;;;;;;12.10;3.78;;;8.10;90.40;;;;;;5014270;28;20036;-49
2022/10/09 01:55:19;;;;;;;14.90;3.80;;;8.10;90.30;;;;;;5032834;28;20105;-48
2022/10/09 01:57:57;;;;;;;;;;;8.10;90.40;;;;;;5042269;28;20498;-46
2022/10/09 02:00:25;;;;;;;9.43;2.80;;;8.10;90.30;;;;;;5052653;28;19908;-46
2022/10/09 02:02:52;;;;;;;8.10;2.80;;;8.10;90.30;;;;;;5049815;28;20035;-46
2022/10/09 02:05:27;;;;;;;10.07;2.50;;;8.10;90.30;;;;;;5023701;28;20617;-45
2022/10/09 02:07:56;;;;;;;8.95;3.15;;;8.00;90.30;;;;;;5040415;28;20045;-47
2022/10/09 02:10:27;;;;;;;8.25;3.63;;;8.00;90.30;;;;;;5049188;28;20025;-49
2022/10/09 02:12:57;;;;;;;7.85;3.08;;;8.00;90.30;;;;;;5046355;28;20086;-47
2022/10/09 02:15:33;;;;;;;11.15;4.65;;;8.00;90.30;;;;;;5011276;28;20432;-46
2022/10/09 02:18:07;;;;;;;10.00;3.58;;;8.00;90.30;;;;;;5031102;28;20366;-47
2022/10/09 02:20:38;;;;;;;6.55;3.35;;;7.90;90.20;;;;;;5026574;28;20037;-48
2022/10/09 02:23:08;;;;;;;7.93;3.08;;;7.90;90.20;;;;;;5028583;28;20519;-51
2022/10/09 02:25:34;;;;;;;;;;;7.90;90.20;;;;;;5048360;28;20091;-49
2022/10/09 02:28:00;;;;;;;6.65;2.53;;;7.90;90.40;;;;;;5042352;28;20285;-48
2022/10/09 02:30:36;;;;;;;8.98;3.63;;;7.90;90.40;;;;;;5047943;28;20095;-46
2022/10/09 02:33:04;;;;;;;8.38;3.08;;;7.80;90.40;;;;;;5034704;28;20039;-47
2022/10/09 02:35:32;;;;;;;5.72;2.40;;;7.80;90.40;;;;;;5031430;28;20127;-49
2022/10/09 02:37:59;;;;;;;11.48;2.63;;;7.80;90.40;;;;;;5032620;28;20091;-45
2022/10/09 02:40:25;;;;;;;10.13;3.40;;;7.80;90.40;;;;;;5036273;28;20136;-46
2022/10/09 02:42:52;;;;;;;11.68;3.17;;;7.80;90.40;;;;;;5035277;28;20104;-45
2022/10/09 02:45:18;;;;;;;7.40;2.88;;;7.80;90.50;;;;;;5030870;28;20038;-49
2022/10/09 02:47:47;;;;;;;8.18;4.32;;;7.80;90.60;;;;;;5015456;28;20022;-46
2022/10/09 02:50:17;;;;;;;15.45;4.30;;;7.80;90.50;;;;;;5015334;28;20022;-45
2022/10/09 02:52:44;;;;;;;7.50;3.22;;;7.70;90.60;;;;;;5015455;28;20073;-47
2022/10/09 02:55:11;;;;;;;8.93;3.35;;;7.70;90.60;;;;;;5020259;28;20446;-46
2022/10/09 02:57:37;;;;;;;10.95;3.35;;;7.70;90.70;;;;;;5034894;28;20022;-46
2022/10/09 03:00:06;;;;;;;6.57;2.75;;;7.70;90.60;;;;;;5034889;28;20067;-52
2022/10/09 03:02:32;;;;;;;7.95;3.25;;;7.70;90.70;;;;;;5034045;28;20469;-45
2022/10/09 03:05:00;;;;;;;8.15;3.55;;;7.70;90.70;;;;;;5035489;28;20071;-47
2022/10/09 03:07:26;;;;;;;6.72;2.60;;;7.70;90.60;;;;;;5035087;28;20021;-49
2022/10/09 03:09:56;;;;;;;8.63;2.70;;;7.70;90.60;;;;;;5029658;28;20108;-48
2022/10/09 03:12:23;;;;;;;5.43;2.85;;;7.60;90.50;;;;;;5035719;28;20104;-48
2022/10/09 03:14:48;;;;;;;6.05;2.85;;;7.60;90.60;;;;;;5014274;28;20038;-47
2022/10/09 03:17:15;;;;;;;7.65;3.25;;;7.60;90.60;;;;;;5025391;28;20117;-46
2022/10/09 03:19:43;;;;;;;9.40;3.65;;;7.60;90.60;;;;;;5035458;28;20091;-48
2022/10/09 03:22:10;;;;;;;7.25;2.78;;;7.50;90.60;;;;;;5035919;28;20067;-50
2022/10/09 03:24:37;;;;;;;9.95;3.17;;;7.60;90.60;;;;;;5033342;28;20044;-45
2022/10/09 03:27:02;;;;;;;6.40;3.17;;;7.50;90.60;;;;;;5019337;28;20034;-47
2022/10/09 03:29:29;;;;;;;7.10;3.10;;;7.50;90.60;;;;;;5014261;28;20104;-46
2022/10/09 03:31:56;;;;;;;11.57;3.70;;;7.50;90.70;;;;;;5015573;28;20026;-52
2022/10/09 03:34:23;;;;;;;17.98;4.22;;;7.50;90.80;;;;;;5031279;28;20087;-46
2022/10/09 03:36:52;;;;;;;5.70;3.15;;;7.50;90.80;;;;;;5014118;28;20560;-47
2022/10/09 03:39:18;;;;;;;8.93;3.30;;;7.50;90.80;;;;;;5052647;28;20481;-50
2022/10/09 03:41:45;;;;;;;11.57;3.70;;;7.50;90.80;;;;;;5044824;28;20083;-51
2022/10/09 03:44:11;;;;;;;7.13;3.90;;;7.40;90.80;;;;;;5035795;28;20035;-49
2022/10/09 03:46:39;;;;;;;8.63;3.35;;;7.40;90.80;;;;;;5044319;28;20122;-51
2022/10/09 03:49:05;;;;;;;10.98;4.35;;;7.40;90.90;;;;;;5038295;28;20154;-51
2022/10/09 03:51:30;;;;;;;8.38;4.22;;;7.40;90.90;;;;;;5036538;28;20120;-47
2022/10/09 03:53:58;;;;;;;7.22;3.25;;;7.40;90.90;;;;;;5050620;28;20034;-45
2022/10/09 03:56:24;;;;;;;9.95;3.50;;;7.40;90.90;;;;;;5054863;28;20025;-49
2022/10/09 03:58:53;;;;;;;12.55;4.10;;;7.40;91.00;;;;;;5039424;28;20033;-49
2022/10/09 04:01:23;;;;;;;7.50;3.80;;;7.40;90.90;;;;;;5034406;28;20041;-48
2022/10/09 04:03:50;;;;;;;13.65;4.07;;;7.40;90.90;;;;;;5050861;28;20049;-50
2022/10/09 04:06:17;;;;;;;12.30;3.78;;;7.40;90.80;;;;;;5052245;28;20024;-51
2022/10/09 04:08:42;;;;;;;12.80;3.75;;;7.40;90.90;;;;;;5051777;28;20458;-48
2022/10/09 04:11:10;;;;;;;8.55;3.50;;;7.40;91.00;;;;;;5044946;28;20047;-50
2022/10/09 04:13:37;;;;;;;11.10;3.85;;;7.40;91.10;;;;;;5053777;28;20033;-50
2022/10/09 04:16:05;;;;;;;11.13;4.50;;;7.40;91.10;;;;;;5043437;28;20025;-48
2022/10/09 04:18:32;;;;;;;7.90;4.80;;;7.40;91.20;;;;;;5034403;28;20443;-47
2022/10/09 04:20:59;;;;;;;9.77;3.85;;;7.40;91.10;;;;;;5034313;28;20339;-53
2022/10/09 04:23:26;;;;;;;10.02;4.18;;;7.30;91.10;;;;;;5037469;28;20544;-50
2022/10/09 04:25:58;;;;;;;10.10;3.90;;;7.30;91.00;;;;;;5035541;28;20111;-50
2022/10/09 04:28:31;;;;;;;9.32;4.10;;;7.30;91.10;;;;;;5036870;28;20337;-51
2022/10/09 04:30:58;;;;;;;6.88;3.67;;;7.20;91.10;;;;;;5017212;28;20025;-51
2022/10/09 04:33:26;;;;;;;13.23;4.47;;;7.30;91.30;;;;;;5034439;28;20029;-52
2022/10/09 04:35:54;;;;;;;6.75;4.32;;;7.20;91.10;;;;;;4997247;28;20100;-52
2022/10/09 04:38:24;;;;;;;8.82;4.47;;;7.20;91.20;;;;;;5030002;28;20033;-53
2022/10/09 04:41:09;;;;;;;15.65;4.85;;;7.20;91.40;;;;;;5040979;28;20389;-53
2022/10/09 04:43:37;;;;;;;15.85;4.80;;;7.20;91.30;;;;;;5017069;28;20034;-53
2022/10/09 04:46:06;;;;;;;11.23;4.97;;;7.20;91.30;;;;;;5019615;28;20017;-50
2022/10/09 04:48:37;;;;;;;14.35;5.28;;;7.20;91.40;;;;;;5019938;28;20029;-54
2022/10/09 04:51:05;;;;;;;9.60;5.20;;;7.10;91.20;;;;;;5036557;28;20029;-50
2022/10/09 04:53:34;;;;;;;12.82;5.82;;;7.10;91.30;;;;;;5052070;28;20064;-51
2022/10/09 04:56:08;;;;;;;12.27;5.72;;;7.10;91.40;;;;;;5020232;28;20120;-52
2022/10/09 04:58:35;;;;;;;14.68;5.82;;;7.10;91.50;;;;;;5035510;28;20095;-50
2022/10/09 05:01:24;;;;;;;11.50;4.90;;;7.10;91.40;;;;;;5051366;28;20111;-53
2022/10/09 05:03:56;;;;;;;10.77;6.53;;;7.10;91.50;;;;;;5035573;28;20458;-52
2022/10/09 05:06:23;;;;;;;9.75;5.78;;;7.00;91.40;;;;;;5053178;28;20064;-52
2022/10/09 05:08:50;;;;;;;14.77;6.38;;;7.00;91.50;;;;;;5050893;28;20584;-53
2022/10/09 05:11:24;;;;;;;10.40;6.40;;;7.00;91.60;;;;;;5052459;28;20029;-50
2022/10/09 05:13:56;;;;;;;15.90;6.40;;;7.00;91.60;;;;;;5050353;28;20040;-54
2022/10/09 05:16:30;;;;;;;10.20;5.40;;;7.00;91.60;;;;;;5019273;28;20051;-55
2022/10/09 05:18:57;;;;;;;10.43;5.80;;;7.00;91.60;;;;;;5036049;28;20063;-53
2022/10/09 05:21:28;;;;;;;14.85;6.00;;;7.00;91.70;;;;;;5051138;28;20033;-53
2022/10/09 05:23:55;;;;;;;11.38;6.15;;;7.00;91.80;;;;;;5037478;28;20392;-53
2022/10/09 05:26:23;;;;;;;11.10;6.82;;;7.00;91.70;;;;;;5034139;28;20059;-54
2022/10/09 05:28:50;;;;;;;10.38;5.55;;;6.90;91.70;;;;;;5034608;28;20068;-53
2022/10/09 05:31:17;;;;;;;12.60;6.82;;;6.90;91.90;;;;;;5030779;28;20033;-50
2022/10/09 05:33:48;;;;;;;13.15;6.03;;;7.00;91.70;;;;;;5016043;28;20044;-51
2022/10/09 05:36:14;;;;;;;;;;;6.90;91.80;;;;;;5033762;28;20065;-48
2022/10/09 05:38:41;;;;;;;10.63;6.13;;;6.90;91.90;;;;;;5016886;28;19913;-50
2022/10/09 05:41:12;;;;;;;14.10;6.75;;;6.90;91.80;;;;;;5033662;28;20037;-55
2022/10/09 05:43:45;;;;;;;13.50;7.00;;;6.90;91.80;;;;;;5035075;28;20488;-53
2022/10/09 05:46:14;;;;;;;9.35;6.30;;;6.90;91.80;;;;;;5050351;28;20066;-54
2022/10/09 05:48:43;;;;;;;12.57;6.50;;;6.90;91.80;;;;;;5035440;28;20402;-53
2022/10/09 05:51:26;;;;;;;7.63;5.63;;;7.00;91.70;;;;;;5035233;28;20044;-48
2022/10/09 05:53:57;;;;;;;9.52;5.85;;;6.90;91.70;;;;;;5016830;28;20037;-50
2022/10/09 05:56:36;;;;;;;10.77;5.72;;;6.90;91.70;;;;;;5052117;28;20108;-51
2022/10/09 05:59:13;;;;;;;9.38;6.00;;;6.90;91.80;;;;;;5029060;28;20061;-53
2022/10/09 06:01:42;;;;;;;8.27;6.22;;;6.90;91.70;;;;;;5015407;28;20033;-53
2022/10/09 06:04:24;;;;;;;12.93;6.35;;;6.90;91.70;;;;;;5052595;28;20112;-54
2022/10/09 06:06:51;;;;;;;11.35;6.22;;;6.90;91.70;;;;;;5018227;28;20067;-48
2022/10/09 06:09:21;;;;;;;13.20;6.90;;;6.90;91.70;;;;;;5051100;28;20335;-53
2022/10/09 06:11:50;;;;;;;13.30;6.80;;;6.90;91.60;;;;;;5036704;28;20051;-53
2022/10/09 06:14:16;;;;;;;10.25;6.97;;;6.90;91.60;;;;;;5036496;28;20028;-49
2022/10/09 06:16:44;;;;;;;9.18;6.60;;;6.90;91.70;;;;;;5033879;28;20036;-56
2022/10/09 06:19:13;;;;;;;14.90;7.38;;;6.90;91.80;;;;;;5037252;28;20120;-50
2022/10/09 06:21:42;;;;;;;9.63;6.95;;;6.90;91.80;;;;;;5034318;28;20031;-53
2022/10/09 06:24:22;;;;;;;11.57;7.32;;;6.90;91.80;;;;;;5054377;28;20055;-50
2022/10/09 06:26:50;;;;;;;9.27;7.63;;;6.90;91.70;;;;;;5051875;28;20422;-56
2022/10/09 06:29:18;;;;;;;11.90;8.18;;;6.90;91.80;;;;;;5052139;28;20029;-50
2022/10/09 06:31:46;;;;;;;14.23;7.63;;;6.90;91.90;;;;;;5054694;28;20025;-54
2022/10/09 06:34:11;;;;;;;11.30;7.03;;;6.90;91.80;;;;;;5055297;28;20031;-52
2022/10/09 06:36:38;;;;;;;13.32;8.15;;;6.90;91.90;;;;;;5055356;28;20041;-50
2022/10/09 06:39:06;;;;;;;11.05;7.47;;;7.00;91.90;;;;;;5055105;28;20040;-49
2022/10/09 06:41:35;;;;;;;16.73;8.60;;;7.00;91.90;;;;;;5053926;28;20029;-50
2022/10/09 06:44:05;;;;;;;12.27;8.43;;;7.00;91.90;;;;;;5055721;28;20029;-49
2022/10/09 06:46:34;;;;;;;8.93;7.43;;;7.00;91.80;;;;;;5021784;28;20037;-50
2022/10/09 06:49:02;;;;;;;11.60;8.10;;;7.00;92.00;;;;;;5052519;28;20361;-50
2022/10/09 06:51:30;;;;;;;11.20;7.68;;;7.00;92.00;;;;;;5021393;28;20033;-52
2022/10/09 06:54:00;;;;;;;10.00;7.00;;;7.10;92.00;;;;;;5036959;28;20504;-52
2022/10/09 06:56:33;;;;;;;10.85;8.05;;;7.20;92.00;;;;;;5038078;28;20514;-54
2022/10/09 06:59:05;;;;;;;10.73;7.20;;;7.20;92.00;;;;;;5033710;28;20052;-54
2022/10/09 07:01:34;;;;;;;10.15;8.43;;;7.30;92.10;;;;;;5043219;28;20021;-50
2022/10/09 07:04:17;;;;;;;17.63;9.38;;;7.30;92.00;;;;;;5016347;28;20073;-53
2022/10/09 07:06:46;;;;;;;11.43;8.02;;;7.40;92.10;;;;;;5027765;28;20370;-54
2022/10/09 07:09:14;;;;;;;11.80;8.45;;;7.40;92.20;;;;;;5037600;28;20415;-50
2022/10/09 07:11:45;;;;;;;11.40;8.15;;;7.50;92.20;;;;;;5018297;28;20032;-56
2022/10/09 07:14:14;;;;;;;11.52;8.75;;;7.60;92.30;;;;;;5020165;28;20481;-49
2022/10/09 07:16:46;;;;;;;16.33;8.05;;;7.60;92.20;;;;;;5037924;28;20108;-51
2022/10/09 07:19:13;;;;;;;15.10;8.00;;;7.70;92.30;;;;;;5020313;28;20389;-56
2022/10/09 07:21:42;;;;;;;13.60;8.23;;;7.70;92.30;;;;;;5034920;28;20099;-52
2022/10/09 07:24:10;;;;;;;11.32;8.07;;;7.90;92.30;;;;;;5030602;28;20418;-52
2022/10/09 07:26:44;;;;;;;13.57;7.88;;;7.90;92.30;;;;;;5019746;28;20032;-54
2022/10/09 07:29:13;;;;;;;17.40;8.75;;;7.90;92.20;;;;;;5037244;28;20086;-51
2022/10/09 07:31:40;;;;;;;13.13;7.15;;;8.00;92.20;;;;;;5048785;28;20052;-55
2022/10/09 07:34:05;;;;;;;13.13;8.32;;;8.20;92.10;;;;;;5035136;28;20476;-56
2022/10/09 07:36:33;;;;;;;12.48;7.78;;;8.40;92.00;;;;;;5039806;28;20071;-55
2022/10/09 07:38:59;;;;;;;17.38;7.85;;;8.70;92.00;;;;;;5036964;28;20033;-55
2022/10/09 07:41:27;;;;;;;11.57;7.00;;;9.00;91.50;;;;;;5031203;28;20045;-55
2022/10/09 07:44:00;;;;;;;11.07;6.53;;;9.30;91.20;;;;;;5035572;28;20464;-53
2022/10/09 07:46:27;;;;;;;10.60;6.50;;;9.40;90.70;;;;;;5047874;28;20334;-52
2022/10/09 07:48:55;;;;;;;10.02;5.93;;;9.80;90.30;;;;;;5053417;28;20032;-54
2022/10/09 07:51:25;;;;;;;23.58;5.68;;;9.90;89.60;;;;;;5053836;28;20028;-50
2022/10/09 07:53:55;;;;;;;11.85;6.00;;;10.20;89.00;;;;;;5018957;28;20036;-53
2022/10/09 07:56:32;;;;;;;7.63;5.28;;;10.40;88.50;;;;;;5036828;28;20522;-51
2022/10/09 07:59:10;;;;;;;10.80;5.32;;;10.60;88.10;;;;;;5019484;28;20132;-48
2022/10/09 08:01:37;;;;;;;8.93;4.88;;;10.80;87.60;;;;;;5036187;28;20045;-51
2022/10/09 08:04:03;;;;;;;8.32;5.32;;;11.20;87.40;;;;;;5053009;28;20021;-52
2022/10/09 08:06:30;;;;;;;7.38;4.53;;;11.30;86.10;;;;;;5053359;28;20040;-51
2022/10/09 08:09:01;;;;;;;9.45;4.78;;;11.40;85.60;;;;;;5034954;28;20033;-48
2022/10/09 08:11:28;;;;;;;9.05;4.53;;;11.60;85.60;;;;;;5036952;28;20033;-53
2022/10/09 08:13:58;;;;;;;7.55;4.13;;;11.80;85.20;;;;;;5052960;28;20501;-52
2022/10/09 08:16:27;;;;;;;8.32;4.25;;;11.80;85.00;;;;;;5048112;28;20133;-50
2022/10/09 08:19:00;;;;;;;9.07;5.53;;;11.90;85.50;;;;;;5048554;28;20033;-48
2022/10/09 08:21:31;;;;;;;9.07;4.32;;;12.20;85.00;;;;;;5050388;28;20070;-51
2022/10/09 08:24:02;;;;;;;8.70;4.18;;;12.30;84.20;;;;;;5048239;28;20032;-55
2022/10/09 08:26:31;;;;;;;7.78;4.43;;;12.40;83.90;;;;;;5036422;28;20037;-53
2022/10/09 08:29:00;;;;;;;4.73;3.37;;;12.50;83.80;;;;;;5041793;28;20040;-53
2022/10/09 08:31:28;;;;;;;;;;;12.70;84.20;;;;;;5046698;28;20354;-55
2022/10/09 08:33:58;;;;;;;7.72;3.67;;;12.90;83.70;;;;;;5035034;28;19912;-53
2022/10/09 08:36:24;;;;;;;6.82;3.72;;;13.00;82.30;;;;;;5020613;28;20046;-53
2022/10/09 08:38:51;;;;;;;7.53;3.72;;;13.20;83.30;;;;;;5020946;28;20040;-53
2022/10/09 08:41:56;;;;;;;8.52;3.97;;;13.40;82.40;;;;;;5022837;28;20040;-52
2022/10/09 08:44:32;;;;;;;7.90;3.72;;;13.40;81.10;;;;;;5035087;28;20033;-54
2022/10/09 08:47:19;;;;;;;9.30;4.13;;;13.50;82.10;;;;;;5037830;28;20057;-54
2022/10/09 08:50:23;;;;;;;7.40;3.63;;;13.50;81.00;;;;;;5050382;28;20025;-54
2022/10/09 08:53:12;;;;;;;6.78;2.85;;;13.40;81.50;;;;;;5029076;28;20043;-54
2022/10/09 08:55:55;;;;;;;6.03;3.13;;;13.50;81.30;;;;;;5012694;28;20062;-52
2022/10/09 08:58:28;;;;;;;6.85;3.80;;;13.40;81.00;;;;;;4990829;28;20048;-51
2022/10/09 09:01:12;;;;;;;7.55;2.65;;;13.60;82.40;;;;;;5032022;28;20025;-53
2022/10/09 09:03:55;;;;;;;8.35;3.13;;;13.80;81.80;;;;;;5007998;28;20022;-53
2022/10/09 09:06:43;;;;;;;9.43;3.22;;;13.90;81.10;;;;;;5034777;28;20021;-49
2022/10/09 09:09:17;;;;;;;7.38;3.28;;;13.90;79.70;;;;;;5040727;28;20186;-53
2022/10/09 09:12:14;;;;;;;6.93;2.80;;;13.90;79.70;;;;;;5052845;28;20372;-52
2022/10/09 09:14:58;;;;;;;11.02;2.90;;;13.90;79.40;;;;;;5053174;28;20067;-53
2022/10/09 09:17:52;;;;;;;10.40;3.00;;;14.10;79.30;;;;;;5049915;28;20079;-50
2022/10/09 09:20:38;;;;;;;8.65;2.30;;;14.00;78.80;;;;;;5051305;28;20025;-49
2022/10/09 09:23:09;;;;;;;5.90;2.20;;;14.00;79.90;;;;;;5032827;28;20036;-48
2022/10/09 09:25:40;;;;;;;8.75;2.20;;;14.20;78.80;;;;;;5032470;28;20036;-50
2022/10/09 09:28:20;;;;;;;7.35;2.80;;;14.20;78.40;;;;;;5018548;28;20032;-54
2022/10/09 09:31:21;;;;;;;10.27;3.45;;;14.20;78.00;;;;;;5018887;28;20033;-50
2022/10/09 09:34:08;;;;;;;5.80;2.60;;;14.20;78.10;;;;;;4981896;28;20049;-48
2022/10/09 09:36:57;;;;;;;6.90;2.40;;;14.30;78.70;;;;;;5028392;28;20706;-51
2022/10/09 09:39:26;;;;;;;5.65;2.38;;;14.40;77.50;;;;;;5032710;28;20033;-49
2022/10/09 09:42:13;;;;;;;7.28;2.00;;;14.60;77.40;;;;;;5032711;28;20060;-48
2022/10/09 09:45:06;;;;;;;10.55;2.00;;;14.70;76.70;;;;;;5013624;28;20041;-49
2022/10/09 09:47:39;;;;;;;6.47;1.63;;;14.90;75.70;;;;;;5015134;28;20517;-50
2022/10/09 09:50:07;;;;;;;4.88;1.52;;;15.00;75.50;;;;;;5031514;28;20451;-48
2022/10/09 09:52:48;;;;;;;10.98;2.70;;;15.00;74.20;;;;;;5015345;28;20029;-51
2022/10/09 09:55:27;;;;;;;6.63;1.77;;;15.00;74.70;;;;;;5032719;28;20041;-51
2022/10/09 09:58:15;;;;;;;6.72;2.20;;;15.20;75.30;;;;;;5014139;28;20045;-50
2022/10/09 10:00:57;;;;;;;8.75;2.42;;;15.20;74.30;;;;;;5013839;28;20072;-47
2022/10/09 10:03:23;;;;;;;5.68;1.80;;;15.20;74.60;;;;;;5012235;28;20049;-50
2022/10/09 10:05:50;;;;;;;7.80;2.03;;;15.20;74.50;;;;;;4996210;28;20038;-49
2022/10/09 10:08:35;;;;;;;7.10;1.90;;;15.30;74.00;;;;;;5031770;28;20049;-49
2022/10/09 10:11:05;;;;;;;10.70;2.38;;;15.20;73.30;;;;;;5030990;28;20030;-49
2022/10/09 10:13:50;;;;;;;7.80;1.60;;;15.20;72.90;;;;;;5029807;28;20103;-49
2022/10/09 10:16:37;;;;;;;7.13;1.60;;;15.00;72.30;;;;;;5032550;28;20022;-48
2022/10/09 10:19:05;;;;;;;7.90;2.13;;;14.90;73.00;;;;;;4995262;28;20087;-51
2022/10/09 10:22:06;;;;;;;6.57;2.92;;;14.90;74.20;;;;;;5025956;28;20040;-48
2022/10/09 10:24:52;;;;;;;6.97;1.42;;;15.00;74.50;;;;;;4993253;28;20045;-47
2022/10/09 10:27:40;;;;;;;9.25;2.70;;;15.20;73.80;;;;;;5019971;28;20035;-48
2022/10/09 10:30:14;;;;;;;6.78;1.42;;;15.40;75.00;;;;;;5014921;28;20037;-48
2022/10/09 10:32:51;;;;;;;7.63;2.85;;;15.50;73.20;;;;;;5014699;28;20033;-47
2022/10/09 10:35:26;;;;;;;10.20;2.60;;;15.40;73.40;;;;;;5034069;28;20083;-49
2022/10/09 10:37:55;;;;;;;8.85;2.03;;;15.40;73.20;;;;;;5018458;28;20151;-49
2022/10/09 10:40:36;;;;;;;6.60;2.20;;;15.30;72.50;;;;;;5037217;28;20036;-51
2022/10/09 10:43:27;;;;;;;6.97;1.63;;;15.40;72.40;;;;;;5048147;28;20029;-48
2022/10/09 10:46:02;;;;;;;8.57;1.73;;;15.50;71.70;;;;;;5052267;28;20047;-50
2022/10/09 10:48:42;;;;;;;7.15;1.73;;;15.40;71.70;;;;;;5034706;28;20040;-48
2022/10/09 10:51:37;;;;;;;6.03;1.92;;;15.50;73.20;;;;;;5045901;28;20466;-49
2022/10/09 10:54:28;;;;;;;7.35;1.83;;;15.70;74.30;;;;;;5044662;28;20025;-50
2022/10/09 10:57:27;;;;;;;6.32;1.67;;;15.60;72.80;;;;;;5032405;28;20489;-48
2022/10/09 11:00:06;;;;;;;5.72;1.52;;;15.70;72.80;;;;;;5035776;28;20033;-50
2022/10/09 11:02:54;;;;;;;10.53;2.17;;;15.60;72.00;;;;;;5034793;28;20033;-47
2022/10/09 11:06:03;;;;;;;8.70;2.63;;;15.50;71.50;;;;;;5035767;28;20334;-46
2022/10/09 11:09:00;;;;;;;8.82;2.50;;;15.40;69.90;;;;;;5035552;28;20044;-47
2022/10/09 11:11:47;;;;;;;7.35;1.98;;;15.40;71.00;;;;;;5029230;28;20458;-49
2022/10/09 11:14:38;;;;;;;6.40;1.83;;;15.40;70.60;;;;;;5034604;28;20324;-50
2022/10/09 11:17:23;;;;;;;9.68;1.75;;;15.20;70.90;;;;;;5035774;28;20029;-47
2022/10/09 11:20:11;;;;;;;16.10;2.15;;;15.30;71.00;;;;;;5037227;28;20093;-49
2022/10/09 11:22:55;;;;;;;9.20;2.08;;;15.20;71.60;;;;;;5015656;28;20470;-48
2022/10/09 11:25:26;;;;;;;7.07;1.92;;;15.30;71.70;;;;;;5014656;28;20420;-46
2022/10/09 11:28:19;;;;;;;6.18;1.75;;;15.40;70.30;;;;;;5015803;28;20037;-48
2022/10/09 11:31:25;;;;;;;8.43;1.35;;;15.30;70.90;;;;;;5024878;28;20037;-46
2022/10/09 11:33:55;;;;;;;6.88;1.63;;;15.40;71.30;;;;;;5032689;28;20977;-48
2022/10/09 11:36:37;;;;;;;7.45;2.03;;;15.30;70.70;;;;;;5007854;28;20057;-47
2022/10/09 11:39:34;;;;;;;8.02;1.83;;;15.20;70.40;;;;;;5017697;28;20045;-47
2022/10/09 11:42:02;;;;;;;8.13;2.45;;;15.20;71.10;;;;;;5013435;28;20474;-48
2022/10/09 11:44:48;;;;;;;5.57;2.00;;;15.20;71.90;;;;;;5035232;28;20504;-50
2022/10/09 11:47:45;;;;;;;7.75;1.90;;;15.20;70.30;;;;;;5035220;28;20446;-49
2022/10/09 11:50:29;;;;;;;8.35;1.77;;;15.00;71.20;;;;;;5033365;28;20112;-47
2022/10/09 11:53:17;;;;;;;11.38;2.95;;;15.10;71.80;;;;;;5017149;28;20033;-47
2022/10/09 11:55:47;;;;;;;11.60;1.90;;;15.10;70.90;;;;;;4982354;28;20049;-46
2022/10/09 11:58:20;;;;;;;5.90;2.15;;;15.10;71.80;;;;;;5001036;28;20092;-49
2022/10/09 12:00:50;;;;;;;8.98;2.58;;;15.10;71.70;;;;;;5034747;28;20474;-49
2022/10/09 12:03:35;;;;;;;7.60;1.73;;;15.10;71.60;;;;;;5016571;28;20082;-50
2022/10/09 12:06:14;;;;;;;5.38;1.95;;;15.00;70.50;;;;;;5013961;28;20534;-47
2022/10/09 12:08:53;;;;;;;5.75;1.90;;;15.00;70.80;;;;;;5032756;28;20033;-48
2022/10/09 12:11:23;;;;;;;7.82;1.80;;;15.10;70.00;;;;;;5016690;28;20090;-49
2022/10/09 12:13:53;;;;;;;8.13;1.98;;;15.00;70.90;;;;;;5012500;28;20467;-49
2022/10/09 12:16:38;;;;;;;;;;;15.00;70.60;;;;;;5014837;28;20100;-51
2022/10/09 12:19:13;;;;;;;5.15;1.83;;;15.00;70.90;;;;;;5031336;28;19931;-48
2022/10/09 12:21:59;;;;;;;5.95;1.60;;;14.90;69.60;;;;;;5016400;28;20247;-51
2022/10/09 12:24:30;;;;;;;7.18;2.30;;;14.90;71.00;;;;;;5017203;28;20063;-48
2022/10/09 12:27:03;;;;;;;6.82;1.85;;;14.90;70.80;;;;;;5022204;28;20108;-47
2022/10/09 12:29:46;;;;;;;7.68;1.83;;;15.00;70.90;;;;;;4998587;28;20049;-47
2022/10/09 12:32:27;;;;;;;8.05;2.45;;;15.10;71.10;;;;;;5011193;28;20038;-46
2022/10/09 12:34:56;;;;;;;7.88;2.00;;;15.10;69.80;;;;;;5031688;28;20032;-47
2022/10/09 12:37:46;;;;;;;9.40;1.85;;;15.00;70.30;;;;;;5035790;28;20050;-47
2022/10/09 12:40:30;;;;;;;8.20;2.03;;;15.10;71.00;;;;;;5013842;28;20037;-50
2022/10/09 12:43:01;;;;;;;8.82;2.38;;;15.10;70.30;;;;;;5013836;28;20037;-47
2022/10/09 12:45:30;;;;;;;8.60;1.67;;;15.20;70.90;;;;;;4993971;28;20053;-47
2022/10/09 12:48:11;;;;;;;5.97;1.35;;;15.20;69.80;;;;;;5001281;28;20045;-50
2022/10/09 12:50:44;;;;;;;12.82;2.15;;;15.20;68.70;;;;;;5024826;28;20052;-47
2022/10/09 12:53:26;;;;;;;7.35;1.92;;;15.00;69.30;;;;;;5028772;28;20025;-46
2022/10/09 12:56:02;;;;;;;6.05;1.77;;;15.00;69.80;;;;;;5000211;28;20019;-49
2022/10/09 12:58:47;;;;;;;6.57;1.58;;;14.90;69.30;;;;;;4997893;28;20052;-51
2022/10/09 13:01:16;;;;;;;5.50;1.40;;;14.90;70.20;;;;;;5022777;28;20045;-49
2022/10/09 13:04:04;;;;;;;4.40;1.67;;;14.90;70.60;;;;;;5043297;28;20046;-46
2022/10/09 13:06:49;;;;;;;10.52;1.73;;;14.90;70.00;;;;;;5012467;28;20042;-46
2022/10/09 13:09:32;;;;;;;6.55;1.42;;;14.90;70.50;;;;;;5010869;28;20034;-47
2022/10/09 13:12:07;;;;;;;9.57;2.08;;;14.80;70.60;;;;;;5018153;28;20091;-47
2022/10/09 13:14:43;;;;;;;9.32;1.55;;;14.80;69.90;;;;;;5036295;28;20128;-50
2022/10/09 13:17:32;;;;;;;7.10;2.63;;;14.70;70.50;;;;;;5030021;28;20100;-46
2022/10/09 13:20:18;;;;;;;6.00;1.40;;;14.70;70.50;;;;;;5030224;28;20116;-50
2022/10/09 13:23:04;;;;;;;6.40;1.88;;;14.70;69.50;;;;;;5012557;28;20036;-48
2022/10/09 13:25:41;;;;;;;6.80;1.63;;;14.90;69.90;;;;;;5013141;28;20026;-47
2022/10/09 13:28:17;;;;;;;7.53;1.50;;;14.90;69.80;;;;;;5012751;28;20362;-47